createdAt,value
2022-12-05T00:00:56.035Z,95484.78
2022-12-05T00:03:23.093Z,95491.00
2022-12-05T00:05:49.696Z,95495.88
2022-12-05T00:08:16.429Z,95495.84
2022-12-05T00:10:43.336Z,95495.84
2022-12-05T00:13:10.684Z,95508.53
2022-12-05T00:15:41.342Z,95508.28
2022-12-05T00:18:07.941Z,95507.75
2022-12-05T00:20:34.856Z,95508.84
2022-12-05T00:23:01.503Z,95517.47
2022-12-05T00:25:28.839Z,95516.69
2022-12-05T00:27:55.392Z,95509.91
2022-12-05T00:30:21.916Z,95511.75
2022-12-05T00:32:48.425Z,95498.28
2022-12-05T00:35:14.981Z,95512.59
2022-12-05T00:37:41.500Z,95510.69
2022-12-05T00:40:08.643Z,95518.78
2022-12-05T00:42:35.197Z,95518.53
2022-12-05T00:45:01.853Z,95513.13
2022-12-05T00:47:28.443Z,95523.38
2022-12-05T00:49:55.330Z,95522.31
2022-12-05T00:52:22.076Z,95512.59
2022-12-05T00:54:48.821Z,95520.97
2022-12-05T00:57:15.484Z,95520.69
2022-12-05T00:59:42.098Z,95517.44
2022-12-05T01:02:08.838Z,95519.06
2022-12-05T01:04:35.538Z,95521.72
2022-12-05T01:07:02.098Z,95520.69
2022-12-05T01:09:28.897Z,95526.88
2022-12-05T01:11:55.975Z,95525.81
2022-12-05T01:14:24.376Z,95518.81
2022-12-05T01:16:53.313Z,95519.63
2022-12-05T01:19:28.544Z,95516.66
2022-12-05T01:21:56.200Z,95525.00
2022-12-05T01:24:23.945Z,95521.50
2022-12-05T01:26:50.599Z,95515.84
2022-12-05T01:29:20.248Z,95524.72
2022-12-05T01:31:47.288Z,95515.06
2022-12-05T01:34:16.213Z,95527.19
2022-12-05T01:36:43.165Z,95526.66
2022-12-05T01:39:11.551Z,95523.13
2022-12-05T01:41:43.101Z,95522.88
2022-12-05T01:44:12.630Z,95523.94
2022-12-05T01:46:44.513Z,95522.88
2022-12-05T01:49:15.495Z,95527.16
2022-12-05T01:51:46.377Z,95519.88
2022-12-05T01:54:15.047Z,95530.13
2022-12-05T01:56:44.488Z,95534.72
2022-12-05T01:59:12.894Z,95532.28
2022-12-05T02:01:40.932Z,95531.50
2022-12-05T02:04:08.389Z,95530.97
2022-12-05T02:06:34.920Z,95537.69
2022-12-05T02:09:01.697Z,95536.88
2022-12-05T02:11:30.270Z,95537.16
2022-12-05T02:14:06.313Z,95537.16
2022-12-05T02:16:35.932Z,95541.50
2022-12-05T02:19:22.413Z,95547.97
2022-12-05T02:22:01.300Z,95543.41
2022-12-05T02:24:46.499Z,95541.78
2022-12-05T02:27:15.726Z,95547.16
2022-12-05T02:30:09.191Z,95545.00
2022-12-05T02:33:17.359Z,95536.66
2022-12-05T02:36:08.692Z,95532.84
2022-12-05T02:39:02.335Z,95536.91
2022-12-05T02:41:49.817Z,95529.09
2022-12-05T02:44:24.419Z,95540.38
2022-12-05T02:46:54.134Z,95534.16
2022-12-05T02:49:25.198Z,95531.50
2022-12-05T02:51:58.371Z,95541.72
2022-12-05T02:54:29.876Z,95533.13
2022-12-05T02:56:58.774Z,95526.66
2022-12-05T02:59:25.377Z,95529.91
2022-12-05T03:01:52.472Z,95525.56
2022-12-05T03:04:22.622Z,95523.94
2022-12-05T03:06:55.654Z,95528.28
2022-12-05T03:09:28.524Z,95534.72
2022-12-05T03:12:01.140Z,95521.81
2022-12-05T03:14:33.375Z,95511.56
2022-12-05T03:17:06.366Z,95510.22
2022-12-05T03:19:42.127Z,95513.44
2022-12-05T03:22:23.046Z,95515.31
2022-12-05T03:24:49.718Z,95514.25
2022-12-05T03:27:16.171Z,95526.66
2022-12-05T03:29:54.708Z,95523.44
2022-12-05T03:32:56.788Z,95517.78
2022-12-05T03:35:25.942Z,95520.22
2022-12-05T03:37:53.492Z,95527.22
2022-12-05T03:40:19.945Z,95523.47
2022-12-05T03:42:54.080Z,95526.69
2022-12-05T03:45:28.518Z,95528.31
2022-12-05T03:48:11.093Z,95523.75
2022-12-05T03:50:42.609Z,95527.25
2022-12-05T03:53:29.754Z,95540.72
2022-12-05T03:56:06.334Z,95536.41
2022-12-05T03:58:43.298Z,95532.09
2022-12-05T04:01:11.867Z,95535.34
2022-12-05T04:03:46.841Z,95533.72
2022-12-05T04:06:18.811Z,95538.56
2022-12-05T04:08:53.706Z,95540.44
2022-12-05T04:11:25.143Z,95548.78
2022-12-05T04:13:57.261Z,95550.94
2022-12-05T04:16:52.191Z,95556.34
2022-12-05T04:19:28.497Z,95557.97
2022-12-05T04:21:56.977Z,95554.72
2022-12-05T04:24:47.392Z,95561.19
2022-12-05T04:27:21.217Z,95558.47
2022-12-05T04:30:10.539Z,95565.22
2022-12-05T04:33:06.378Z,95566.56
2022-12-05T04:35:38.640Z,95565.22
2022-12-05T04:38:13.827Z,95571.16
2022-12-05T04:41:03.087Z,95573.03
2022-12-05T04:43:34.524Z,95579.53
2022-12-05T04:46:04.979Z,95577.91
2022-12-05T04:48:34.958Z,95576.56
2022-12-05T04:51:02.765Z,95576.56
2022-12-05T04:53:31.140Z,95583.59
2022-12-05T04:56:00.298Z,95590.59
2022-12-05T04:58:28.136Z,95586.28
2022-12-05T05:01:14.301Z,95586.53
2022-12-05T05:04:02.741Z,95584.13
2022-12-05T05:06:30.674Z,95582.25
2022-12-05T05:08:58.394Z,95583.31
2022-12-05T05:11:28.288Z,95583.28
2022-12-05T05:13:55.334Z,95584.91
2022-12-05T05:16:42.309Z,95587.63
2022-12-05T05:19:11.328Z,95590.06
2022-12-05T05:21:40.618Z,95596.81
2022-12-05T05:24:08.229Z,95594.59
2022-12-05T05:26:38.442Z,95599.47
2022-12-05T05:29:05.448Z,95596.22
2022-12-05T05:31:32.494Z,95606.75
2022-12-05T05:34:03.277Z,95597.03
2022-12-05T05:36:34.534Z,95605.94
2022-12-05T05:39:02.396Z,95611.06
2022-12-05T05:41:31.969Z,95606.50
2022-12-05T05:43:59.412Z,95613.50
2022-12-05T05:46:29.449Z,95614.06
2022-12-05T05:48:56.517Z,95619.47
2022-12-05T05:51:25.790Z,95613.50
2022-12-05T05:53:52.345Z,95624.84
2022-12-05T05:56:21.936Z,95622.72
2022-12-05T05:58:54.936Z,95624.28
2022-12-05T06:01:21.624Z,95634.28
2022-12-05T06:03:48.827Z,95628.09
2022-12-05T06:06:16.065Z,95636.19
2022-12-05T06:08:44.422Z,95639.69
2022-12-05T06:11:21.621Z,95632.69
2022-12-05T06:13:51.918Z,95637.22
2022-12-05T06:16:21.266Z,95634.28
2022-12-05T06:18:49.889Z,95635.34
2022-12-05T06:21:16.900Z,95637.47
2022-12-05T06:23:44.020Z,95639.38
2022-12-05T06:26:16.445Z,95642.63
2022-12-05T06:28:43.290Z,95639.66
2022-12-05T06:31:15.947Z,95649.13
2022-12-05T06:33:42.861Z,95649.94
2022-12-05T06:36:12.704Z,95651.81
2022-12-05T06:38:42.276Z,95654.50
2022-12-05T06:41:11.462Z,95649.63
2022-12-05T06:43:38.051Z,95650.72
2022-12-05T06:46:06.374Z,95662.56
2022-12-05T06:48:33.147Z,95656.34
2022-12-05T06:51:00.454Z,95653.91
2022-12-05T06:53:27.397Z,95650.16
2022-12-05T06:55:57.791Z,95655.03
2022-12-05T06:58:24.836Z,95652.59
2022-12-05T07:01:09.894Z,95652.34
2022-12-05T07:03:37.129Z,95651.53
2022-12-05T07:06:05.882Z,95662.84
2022-12-05T07:08:33.512Z,95662.84
2022-12-05T07:11:00.169Z,95654.78
2022-12-05T07:13:26.715Z,95654.50
2022-12-05T07:15:53.509Z,95663.41
2022-12-05T07:18:20.057Z,95664.47
2022-12-05T07:21:12.871Z,95672.31
2022-12-05T07:23:41.032Z,95663.16
2022-12-05T07:26:09.250Z,95669.34
2022-12-05T07:28:36.435Z,95666.16
2022-12-05T07:31:06.368Z,95678.00
2022-12-05T07:33:33.186Z,95671.28
2022-12-05T07:36:09.080Z,95669.66
2022-12-05T07:38:36.119Z,95669.66
2022-12-05T07:41:19.365Z,95677.00
2022-12-05T07:43:46.156Z,95678.91
2022-12-05T07:46:12.905Z,95681.63
2022-12-05T07:48:40.157Z,95686.50
2022-12-05T07:51:08.744Z,95685.72
2022-12-05T07:53:36.525Z,95690.03
2022-12-05T07:56:06.744Z,95685.75
2022-12-05T07:58:34.194Z,95688.75
2022-12-05T08:01:18.757Z,95700.91
2022-12-05T08:03:46.017Z,95698.50
2022-12-05T08:06:17.559Z,95700.66
2022-12-05T08:08:45.348Z,95704.72
2022-12-05T08:11:16.024Z,95705.81
2022-12-05T08:13:43.676Z,95719.84
2022-12-05T08:16:13.914Z,95714.47
2022-12-05T08:18:41.385Z,95722.31
2022-12-05T08:21:10.695Z,95722.25
2022-12-05T08:23:38.536Z,95723.34
2022-12-05T08:26:29.645Z,95725.56
2022-12-05T08:29:16.412Z,95733.38
2022-12-05T08:31:49.019Z,95733.38
2022-12-05T08:34:18.159Z,95739.91
2022-12-05T08:36:45.144Z,95738.81
2022-12-05T08:39:15.972Z,95740.97
2022-12-05T08:41:43.814Z,95732.88
2022-12-05T08:44:11.025Z,95736.94
2022-12-05T08:46:39.120Z,95748.84
2022-12-05T08:49:06.567Z,95758.03
2022-12-05T08:51:33.195Z,95769.91
2022-12-05T08:54:02.451Z,95766.63
2022-12-05T08:56:29.129Z,95768.78
2022-12-05T08:59:02.888Z,95773.38
2022-12-05T09:01:33.483Z,95772.56
2022-12-05T09:04:01.500Z,95782.03
2022-12-05T09:06:29.480Z,95783.66
2022-12-05T09:08:58.568Z,95779.38
2022-12-05T09:11:31.303Z,95769.13
2022-12-05T09:13:59.514Z,95771.84
2022-12-05T09:16:37.495Z,95778.03
2022-12-05T09:19:07.076Z,95766.72
2022-12-05T09:21:33.637Z,95768.66
2022-12-05T09:24:00.901Z,95775.41
2022-12-05T09:26:30.026Z,95769.22
2022-12-05T09:28:57.674Z,95767.94
2022-12-05T09:31:27.256Z,95779.03
2022-12-05T09:33:54.342Z,95781.72
2022-12-05T09:36:26.251Z,95770.09
2022-12-05T09:38:53.900Z,95777.94
2022-12-05T09:41:54.271Z,95783.09
2022-12-05T09:44:32.930Z,95783.41
2022-12-05T09:47:12.993Z,95785.59
2022-12-05T09:49:47.563Z,95790.50
2022-12-05T09:52:28.985Z,95786.44
2022-12-05T09:54:55.957Z,95791.34
2022-12-05T09:57:34.248Z,95790.53
2022-12-05T10:00:03.743Z,95788.91
2022-12-05T10:02:44.154Z,95796.22
2022-12-05T10:05:28.067Z,95795.09
2022-12-05T10:07:57.538Z,95792.09
2022-12-05T10:10:33.735Z,95787.25
2022-12-05T10:13:28.263Z,95785.38
2022-12-05T10:16:07.684Z,95788.66
2022-12-05T10:18:40.600Z,95791.66
2022-12-05T10:21:19.111Z,95793.03
2022-12-05T10:23:58.827Z,95787.09
2022-12-05T10:26:33.159Z,95781.19
2022-12-05T10:29:23.844Z,95787.13
2022-12-05T10:31:54.512Z,95784.41
2022-12-05T10:34:31.931Z,95784.97
2022-12-05T10:37:14.263Z,95784.75
2022-12-05T10:39:41.030Z,95791.47
2022-12-05T10:42:15.347Z,95784.16
2022-12-05T10:44:42.189Z,95787.34
2022-12-05T10:47:09.768Z,95791.38
2022-12-05T10:49:37.974Z,95784.81
2022-12-05T10:52:05.370Z,95791.06
2022-12-05T10:54:46.910Z,95788.06
2022-12-05T10:57:25.603Z,95782.16
2022-12-05T10:59:53.206Z,95786.16
2022-12-05T11:02:28.197Z,95777.28
2022-12-05T11:04:56.135Z,95778.16
2022-12-05T11:07:33.288Z,95786.03
2022-12-05T11:10:02.453Z,95781.72
2022-12-05T11:12:39.595Z,95787.03
2022-12-05T11:15:24.308Z,95778.88
2022-12-05T11:17:53.279Z,95779.41
2022-12-05T11:20:19.729Z,95778.38
2022-12-05T11:22:52.703Z,95781.84
2022-12-05T11:25:28.247Z,95769.44
2022-12-05T11:28:00.925Z,95769.13
2022-12-05T11:30:29.547Z,95768.03
2022-12-05T11:33:20.448Z,95763.78
2022-12-05T11:35:48.150Z,95768.41
2022-12-05T11:38:17.626Z,95771.13
2022-12-05T11:40:49.951Z,95771.09
2022-12-05T11:43:35.362Z,95777.56
2022-12-05T11:46:24.982Z,95771.38
2022-12-05T11:49:02.033Z,95774.63
2022-12-05T11:51:40.430Z,95772.47
2022-12-05T11:55:08.160Z,95773.19
2022-12-05T11:57:54.529Z,95775.13
2022-12-05T12:00:22.839Z,95771.91
2022-12-05T12:03:19.708Z,95778.38
2022-12-05T12:06:14.186Z,95781.63
2022-12-05T12:08:50.021Z,95777.28
2022-12-05T12:11:38.012Z,95783.78
2022-12-05T12:14:19.853Z,95778.38
2022-12-05T12:16:49.380Z,95782.38
2022-12-05T12:19:31.459Z,95782.66
2022-12-05T12:22:24.091Z,95780.78
2022-12-05T12:25:33.741Z,95783.22
2022-12-05T12:28:12.694Z,95786.47
2022-12-05T12:31:03.733Z,95786.47
2022-12-05T12:33:40.279Z,95775.16
2022-12-05T12:36:28.618Z,95782.72
2022-12-05T12:39:24.311Z,95782.19
2022-12-05T12:41:57.082Z,95781.41
2022-12-05T12:44:41.562Z,95780.06
2022-12-05T12:47:37.552Z,95781.97
2022-12-05T12:50:19.897Z,95792.50
2022-12-05T12:53:14.956Z,95793.59
2022-12-05T12:56:10.726Z,95794.16
2022-12-05T12:58:42.898Z,95787.66
2022-12-05T13:01:36.560Z,95788.75
2022-12-05T13:04:12.558Z,95784.13
2022-12-05T13:06:51.229Z,95787.88
2022-12-05T13:09:26.524Z,95776.53
2022-12-05T13:11:55.347Z,95770.03
2022-12-05T13:14:25.286Z,95782.19
2022-12-05T13:16:54.724Z,95780.03
2022-12-05T13:19:37.431Z,95774.88
2022-12-05T13:22:05.997Z,95783.25
2022-12-05T13:24:32.709Z,95784.59
2022-12-05T13:27:02.610Z,95784.59
2022-12-05T13:29:34.023Z,95781.34
2022-12-05T13:32:03.294Z,95785.94
2022-12-05T13:34:29.963Z,95784.84
2022-12-05T13:37:17.668Z,95793.19
2022-12-05T13:40:14.569Z,95793.94
2022-12-05T13:42:43.125Z,95793.66
2022-12-05T13:45:20.563Z,95802.56
2022-12-05T13:48:01.584Z,95787.72
2022-12-05T13:50:49.066Z,95796.41
2022-12-05T13:53:18.549Z,95798.34
2022-12-05T13:55:57.518Z,95799.16
2022-12-05T13:58:24.080Z,95792.97
2022-12-05T14:00:52.221Z,95786.94
2022-12-05T14:03:21.821Z,95797.16
2022-12-05T14:05:54.915Z,95798.25
2022-12-05T14:08:37.666Z,95802.06
2022-12-05T14:11:05.747Z,95799.91
2022-12-05T14:13:33.707Z,95804.22
2022-12-05T14:16:35.448Z,95802.59
2022-12-05T14:19:16.504Z,95808.53
2022-12-05T14:21:54.731Z,95804.50
2022-12-05T14:24:33.439Z,95803.69
2022-12-05T14:27:28.957Z,95806.91
2022-12-05T14:30:21.568Z,95806.38
2022-12-05T14:32:49.977Z,95808.53
2022-12-05T14:35:25.568Z,95806.91
2022-12-05T14:37:53.753Z,95810.97
2022-12-05T14:40:32.384Z,95806.91
2022-12-05T14:43:21.066Z,95799.63
2022-12-05T14:45:58.943Z,95805.28
2022-12-05T14:48:47.143Z,95802.28
2022-12-05T14:51:32.532Z,95802.28
2022-12-05T14:54:12.759Z,95805.78
2022-12-05T14:56:50.721Z,95806.59
2022-12-05T14:59:29.145Z,95805.28
2022-12-05T15:01:58.875Z,95800.66
2022-12-05T15:04:43.597Z,95803.63
2022-12-05T15:07:16.624Z,95809.28
2022-12-05T15:09:46.363Z,95818.44
2022-12-05T15:12:22.025Z,95810.09
2022-12-05T15:14:55.241Z,95816.00
2022-12-05T15:17:30.476Z,95818.72
2022-12-05T15:20:04.078Z,95824.13
2022-12-05T15:22:35.375Z,95826.00
2022-12-05T15:25:35.297Z,95828.38
2022-12-05T15:28:05.377Z,95828.44
2022-12-05T15:30:36.263Z,95826.25
2022-12-05T15:33:03.581Z,95837.28
2022-12-05T15:35:33.762Z,95830.03
2022-12-05T15:38:13.633Z,95834.34
2022-12-05T15:40:47.564Z,95831.69
2022-12-05T15:43:29.023Z,95842.78
2022-12-05T15:46:24.630Z,95845.75
2022-12-05T15:48:56.849Z,95843.56
2022-12-05T15:51:43.017Z,95836.53
2022-12-05T15:54:29.101Z,95839.78
2022-12-05T15:57:07.197Z,95837.09
2022-12-05T15:59:42.339Z,95841.44
2022-12-05T16:02:26.336Z,95838.72
2022-12-05T16:04:56.681Z,95841.69
2022-12-05T16:07:27.164Z,95844.13
2022-12-05T16:09:57.790Z,95842.50
2022-12-05T16:12:31.509Z,95840.34
2022-12-05T16:15:03.410Z,95846.28
2022-12-05T16:17:39.316Z,95845.75
2022-12-05T16:20:36.392Z,95854.94
2022-12-05T16:23:32.300Z,95859.50
2022-12-05T16:26:21.615Z,95874.91
2022-12-05T16:28:59.293Z,95867.88
2022-12-05T16:31:26.309Z,95874.09
2022-12-05T16:34:01.630Z,95877.06
2022-12-05T16:36:28.404Z,95877.56
2022-12-05T16:39:06.903Z,95875.09
2022-12-05T16:41:38.902Z,95872.41
2022-12-05T16:44:26.226Z,95872.66
2022-12-05T16:46:54.175Z,95872.66
2022-12-05T16:49:37.025Z,95879.13
2022-12-05T16:52:14.464Z,95879.69
2022-12-05T16:54:42.664Z,95885.91
2022-12-05T16:57:12.242Z,95891.06
2022-12-05T16:59:39.819Z,95890.25
2022-12-05T17:02:12.499Z,95893.19
2022-12-05T17:04:39.186Z,95882.63
2022-12-05T17:07:05.872Z,95882.63
2022-12-05T17:09:32.555Z,95881.91
2022-12-05T17:12:07.701Z,95889.94
2022-12-05T17:14:34.406Z,95886.41
2022-12-05T17:17:03.703Z,95892.16
2022-12-05T17:19:30.364Z,95891.00
2022-12-05T17:21:57.013Z,95894.78
2022-12-05T17:24:24.800Z,95893.44
2022-12-05T17:26:51.563Z,95892.63
2022-12-05T17:29:18.057Z,95890.75
2022-12-05T17:31:44.909Z,95898.03
2022-12-05T17:34:16.828Z,95899.16
2022-12-05T17:36:44.913Z,95902.09
2022-12-05T17:39:11.660Z,95897.53
2022-12-05T17:41:38.245Z,95902.63
2022-12-05T17:44:05.748Z,95903.97
2022-12-05T17:46:32.673Z,95905.88
2022-12-05T17:48:59.298Z,95902.06
2022-12-05T17:51:26.437Z,95908.81
2022-12-05T17:53:54.133Z,95900.44
2022-12-05T17:56:21.577Z,95914.75
2022-12-05T17:58:48.377Z,95919.59
2022-12-05T18:01:17.604Z,95910.41
2022-12-05T18:03:45.671Z,95898.59
2022-12-05T18:06:12.340Z,95899.16
2022-12-05T18:08:44.024Z,95907.75
2022-12-05T18:11:14.467Z,95905.00
2022-12-05T18:13:41.130Z,95918.69
2022-12-05T18:16:07.871Z,95911.09
2022-12-05T18:18:34.607Z,95915.13
2022-12-05T18:21:09.161Z,95912.41
2022-12-05T18:23:36.936Z,95912.13
2022-12-05T18:26:05.978Z,95907.28
2022-12-05T18:28:34.623Z,95915.63
2022-12-05T18:31:07.081Z,95918.34
2022-12-05T18:33:33.686Z,95921.03
2022-12-05T18:36:05.562Z,95918.84
2022-12-05T18:38:32.105Z,95918.78
2022-12-05T18:41:02.743Z,95915.06
2022-12-05T18:43:29.533Z,95921.03
2022-12-05T18:46:03.023Z,95916.69
2022-12-05T18:48:39.446Z,95920.47
2022-12-05T18:51:12.666Z,95927.50
2022-12-05T18:53:39.521Z,95917.78
2022-12-05T18:56:25.007Z,95926.44
2022-12-05T18:59:01.926Z,95932.91
2022-12-05T19:01:29.308Z,95924.28
2022-12-05T19:04:00.740Z,95926.44
2022-12-05T19:06:29.917Z,95926.19
2022-12-05T19:08:59.073Z,95941.56
2022-12-05T19:11:26.488Z,95937.75
2022-12-05T19:14:00.540Z,95948.22
2022-12-05T19:16:28.192Z,95948.53
2022-12-05T19:18:58.028Z,95958.50
2022-12-05T19:21:26.917Z,95950.72
2022-12-05T19:23:54.046Z,95958.81
2022-12-05T19:26:21.996Z,95946.44
2022-12-05T19:28:49.275Z,95962.84
2022-12-05T19:31:19.632Z,95962.53
2022-12-05T19:33:52.196Z,95966.88
2022-12-05T19:36:21.174Z,95968.25
2022-12-05T19:38:50.098Z,95965.78
2022-12-05T19:41:20.001Z,95977.72
2022-12-05T19:43:47.256Z,95970.44
2022-12-05T19:46:20.123Z,95974.19
2022-12-05T19:48:47.967Z,95972.00
2022-12-05T19:51:14.792Z,95977.66
2022-12-05T19:53:42.988Z,95968.69
2022-12-05T19:56:14.682Z,95974.66
2022-12-05T19:58:41.935Z,95971.97
2022-12-05T20:01:13.221Z,95967.94
2022-12-05T20:03:40.899Z,95971.97
2022-12-05T20:06:08.680Z,95964.16
2022-12-05T20:08:36.422Z,95959.28
2022-12-05T20:11:05.003Z,95963.66
2022-12-05T20:13:46.432Z,95962.84
2022-12-05T20:16:15.231Z,95973.59
2022-12-05T20:18:42.093Z,95970.31
2022-12-05T20:21:11.836Z,95973.84
2022-12-05T20:23:38.680Z,95968.75
2022-12-05T20:26:15.788Z,95968.75
2022-12-05T20:28:42.537Z,95968.44
2022-12-05T20:31:16.246Z,95964.16
2022-12-05T20:33:43.727Z,95961.72
2022-12-05T20:36:18.728Z,95964.66
2022-12-05T20:38:46.633Z,95972.25
2022-12-05T20:41:15.854Z,95977.91
2022-12-05T20:43:47.261Z,95982.50
2022-12-05T20:46:16.915Z,95974.41
2022-12-05T20:48:44.618Z,95974.72
2022-12-05T20:51:13.636Z,95974.97
2022-12-05T20:53:41.847Z,95979.25
2022-12-05T20:56:11.584Z,95978.13
2022-12-05T20:58:38.872Z,95967.56
2022-12-05T21:01:10.736Z,95972.78
2022-12-05T21:03:40.945Z,95959.78
2022-12-05T21:06:12.914Z,95963.84
2022-12-05T21:08:40.236Z,95954.94
2022-12-05T21:11:07.812Z,95950.38
2022-12-05T21:13:35.021Z,95945.78
2022-12-05T21:16:04.975Z,95952.25
2022-12-05T21:18:32.058Z,95953.88
2022-12-05T21:21:01.776Z,95956.00
2022-12-05T21:23:28.761Z,95955.47
2022-12-05T21:25:55.906Z,95950.31
2022-12-05T21:28:22.476Z,95961.91
2022-12-05T21:30:49.045Z,95959.47
2022-12-05T21:33:15.600Z,95951.06
2022-12-05T21:35:43.437Z,95955.91
2022-12-05T21:38:10.040Z,95966.69
2022-12-05T21:40:36.536Z,95960.19
2022-12-05T21:43:03.084Z,95962.31
2022-12-05T21:45:29.696Z,95960.19
2022-12-05T21:47:56.229Z,95958.03
2022-12-05T21:50:22.752Z,95956.16
2022-12-05T21:52:49.393Z,95956.41
2022-12-05T21:55:16.112Z,95954.78
2022-12-05T21:57:42.614Z,95953.16
2022-12-05T22:00:09.808Z,95955.66
2022-12-05T22:02:36.420Z,95949.13
2022-12-05T22:05:03.105Z,95948.06
2022-12-05T22:07:29.695Z,95950.19
2022-12-05T22:09:56.459Z,95955.59
2022-12-05T22:12:23.432Z,95948.81
2022-12-05T22:14:49.977Z,95945.00
2022-12-05T22:17:16.505Z,95956.91
2022-12-05T22:19:43.037Z,95959.56
2022-12-05T22:22:10.678Z,95966.09
2022-12-05T22:24:37.302Z,95962.31
2022-12-05T22:27:03.834Z,95954.22
2022-12-05T22:29:30.329Z,95958.31
2022-12-05T22:31:56.880Z,95955.84
2022-12-05T22:34:23.451Z,95955.59
2022-12-05T22:36:51.765Z,95958.25
2022-12-05T22:39:18.318Z,95963.88
2022-12-05T22:41:45.029Z,95961.69
2022-12-05T22:44:11.561Z,95957.69
2022-12-05T22:46:38.185Z,95949.59
2022-12-05T22:49:05.118Z,95958.25
2022-12-05T22:51:32.562Z,95960.38
2022-12-05T22:53:59.489Z,95953.66
2022-12-05T22:56:27.817Z,95949.84
2022-12-05T22:58:56.437Z,95951.91
2022-12-05T23:01:31.955Z,95953.53
2022-12-05T23:04:07.301Z,95947.34
2022-12-05T23:06:35.367Z,95947.03
2022-12-05T23:09:03.447Z,95937.63
2022-12-05T23:11:30.941Z,95943.31
2022-12-05T23:14:01.613Z,95932.28
2022-12-05T23:16:31.005Z,95936.84
2022-12-05T23:18:59.969Z,95934.09
2022-12-05T23:21:29.740Z,95937.88
2022-12-05T23:23:59.893Z,95926.50
2022-12-05T23:26:29.597Z,95941.31
2022-12-05T23:28:56.582Z,95943.69
2022-12-05T23:31:23.946Z,95942.50
2022-12-05T23:33:51.649Z,95932.16
2022-12-05T23:36:19.572Z,95937.53
2022-12-05T23:38:46.317Z,95933.72
2022-12-05T23:41:17.841Z,95938.03
2022-12-05T23:43:44.920Z,95937.53
2022-12-05T23:46:12.960Z,95938.66
2022-12-05T23:48:40.205Z,95945.63
2022-12-05T23:51:12.721Z,95940.84
2022-12-05T23:53:42.013Z,95940.09
2022-12-05T23:56:11.583Z,95947.94
2022-12-05T23:58:38.439Z,95942.19
